Time;durP1;ratioP1;P1;durP2;ratioP2;P2;SDS_P1;SDS_P2;PMS_P1;PMS_P2;Temp;Humidity;BMP_temperature;BMP_pressure;BME280_temperature;BME280_humidity;BME280_pressure;Samples;Min_cycle;Max_cycle;Signal;HPM_P1;HPM_P2
2021/04/23 00:00:43;;;;;;;4.17;2.67;;;4.40;99.90;;;;;;5110381;27;20196;-80
2021/04/23 00:03:17;;;;;;;3.30;2.30;;;4.40;99.90;;;;;;5101253;28;20211;-81
2021/04/23 00:05:44;;;;;;;3.80;1.87;;;4.40;99.90;;;;;;5091435;28;20271;-82
2021/04/23 00:08:11;;;;;;;2.27;1.70;;;4.40;99.90;;;;;;5110510;28;20272;-80
2021/04/23 00:10:37;;;;;;;5.57;1.97;;;4.30;99.90;;;;;;5092096;28;20688;-79
2021/04/23 00:13:04;;;;;;;2.33;1.90;;;4.20;99.90;;;;;;5091162;28;20184;-82
2021/04/23 00:15:29;;;;;;;3.07;1.60;;;4.30;99.90;;;;;;5090170;28;20255;-82
2021/04/23 00:17:55;;;;;;;2.07;1.80;;;4.20;99.90;;;;;;5090549;28;20266;-82
2021/04/23 00:20:24;;;;;;;2.47;1.93;;;4.20;99.90;;;;;;5090812;28;20280;-82
2021/04/23 00:22:49;;;;;;;2.77;2.07;;;4.30;99.90;;;;;;5108979;27;20807;-82
2021/04/23 00:25:25;;;;;;;2.70;1.50;;;4.40;99.90;;;;;;5090452;28;20180;-81
2021/04/23 00:27:52;;;;;;;3.10;1.73;;;4.30;99.90;;;;;;5108362;27;20180;-81
2021/04/23 00:30:19;;;;;;;2.60;1.90;;;4.40;99.90;;;;;;5090183;28;20677;-82
2021/04/23 00:32:54;;;;;;;2.90;1.60;;;4.40;99.90;;;;;;5107894;27;20210;-81
2021/04/23 00:35:25;;;;;;;3.60;2.47;;;4.50;99.90;;;;;;5089365;28;20240;-82
2021/04/23 00:37:52;;;;;;;3.53;2.40;;;4.50;99.90;;;;;;5108762;27;20813;-81
2021/04/23 00:40:24;;;;;;;2.77;1.73;;;4.60;99.90;;;;;;5108001;27;20324;-81
2021/04/23 00:42:50;;;;;;;2.23;1.40;;;4.50;99.90;;;;;;5088718;28;20661;-81
2021/04/23 00:45:19;;;;;;;2.83;1.27;;;4.60;99.90;;;;;;5089649;28;20187;-81
2021/04/23 00:47:47;;;;;;;2.40;1.53;;;4.50;99.90;;;;;;5089783;28;20196;-83
2021/04/23 00:50:25;;;;;;;2.70;1.33;;;4.50;99.90;;;;;;5098689;28;20212;-80
2021/04/23 00:52:51;;;;;;;2.03;1.43;;;4.40;99.90;;;;;;5090607;28;20271;-83
2021/04/23 00:55:16;;;;;;;4.10;1.63;;;4.40;99.90;;;;;;5089441;28;20272;-84
2021/04/23 00:57:42;;;;;;;4.63;2.03;;;4.40;99.90;;;;;;5089988;28;20225;-80
2021/04/23 01:00:08;;;;;;;2.33;1.53;;;4.50;99.90;;;;;;5106956;27;20268;-82
2021/04/23 01:02:34;;;;;;;3.37;2.50;;;4.40;99.90;;;;;;5107746;28;20606;-81
2021/04/23 01:05:00;;;;;;;2.10;1.90;;;4.40;99.90;;;;;;5108057;27;20273;-81
2021/04/23 01:07:26;;;;;;;2.33;1.87;;;4.50;99.90;;;;;;5088204;28;20260;-82
2021/04/23 01:09:51;;;;;;;3.23;1.60;;;4.40;99.90;;;;;;5082921;28;20243;-82
2021/04/23 01:12:17;;;;;;;1.60;1.30;;;4.40;99.90;;;;;;5089465;28;20211;-81
2021/04/23 01:14:43;;;;;;;3.07;1.30;;;4.50;99.90;;;;;;5107195;28;20181;-81
2021/04/23 01:17:08;;;;;;;3.07;2.30;;;4.50;99.90;;;;;;5108519;27;20614;-81
2021/04/23 01:19:34;;;;;;;2.57;1.70;;;4.50;99.90;;;;;;5108362;27;20867;-82
2021/04/23 01:22:00;;;;;;;1.50;1.30;;;4.40;99.90;;;;;;5107513;27;21022;-82
2021/04/23 01:24:26;;;;;;;2.63;2.20;;;4.40;99.90;;;;;;5088909;28;20188;-82
2021/04/23 01:26:55;;;;;;;2.03;1.37;;;4.40;99.90;;;;;;5089768;28;20684;-80
2021/04/23 01:29:22;;;;;;;2.43;1.67;;;4.50;99.90;;;;;;5108084;27;20250;-79
2021/04/23 01:31:51;;;;;;;5.20;2.33;;;4.60;99.90;;;;;;5106801;28;20638;-79
2021/04/23 01:34:30;;;;;;;2.60;1.93;;;4.60;99.90;;;;;;5089231;28;20577;-82
2021/04/23 01:36:57;;;;;;;3.33;1.77;;;4.70;99.90;;;;;;5089768;27;20188;-82
2021/04/23 01:39:25;;;;;;;2.47;1.80;;;4.80;99.90;;;;;;5107824;27;20656;-80
2021/04/23 01:41:52;;;;;;;2.73;2.07;;;4.90;99.90;;;;;;5107210;27;20212;-82
2021/04/23 01:44:19;;;;;;;2.83;1.47;;;4.90;99.90;;;;;;5106283;27;20192;-80
2021/04/23 01:46:45;;;;;;;4.13;1.93;;;5.00;99.90;;;;;;5088309;28;20559;-81
2021/04/23 01:49:14;;;;;;;3.87;2.17;;;5.00;99.90;;;;;;5089089;28;20581;-80
2021/04/23 01:51:42;;;;;;;2.10;1.70;;;5.10;99.90;;;;;;5091041;28;20204;-79
2021/04/23 01:54:09;;;;;;;2.10;1.67;;;5.20;99.90;;;;;;5092072;28;20180;-80
2021/04/23 01:56:36;;;;;;;3.50;1.83;;;5.10;99.90;;;;;;5087898;28;20177;-80
2021/04/23 01:59:04;;;;;;;2.83;1.40;;;5.20;99.90;;;;;;5088350;27;20271;-80
2021/04/23 02:01:30;;;;;;;2.73;1.80;;;5.20;99.90;;;;;;5088448;28;20315;-80
2021/04/23 02:03:56;;;;;;;3.93;1.93;;;5.30;99.90;;;;;;5087869;28;20697;-80
2021/04/23 02:06:21;;;;;;;3.97;1.87;;;5.30;99.90;;;;;;5106249;28;20184;-78
2021/04/23 02:08:47;;;;;;;2.50;1.23;;;5.30;99.90;;;;;;5106690;28;20208;-80
2021/04/23 02:11:15;;;;;;;4.30;2.37;;;5.40;99.90;;;;;;5088455;28;20222;-80
2021/04/23 02:13:43;;;;;;;1.50;1.00;;;5.40;99.90;;;;;;5106673;28;20191;-79
2021/04/23 02:16:10;;;;;;;2.63;1.70;;;5.40;99.90;;;;;;5088020;28;20192;-80
2021/04/23 02:18:36;;;;;;;2.17;1.40;;;5.40;99.90;;;;;;5088401;28;20207;-81
2021/04/23 02:21:04;;;;;;;1.57;1.37;;;5.40;99.90;;;;;;5088610;28;20265;-79
2021/04/23 02:23:30;;;;;;;2.63;1.50;;;5.40;99.90;;;;;;5107293;27;20227;-81
2021/04/23 02:25:56;;;;;;;2.33;1.40;;;5.40;99.90;;;;;;5086676;28;20208;-79
2021/04/23 02:28:22;;;;;;;1.73;1.17;;;5.50;99.90;;;;;;5106891;28;20204;-80
2021/04/23 02:30:57;;;;;;;2.97;2.20;;;5.60;99.90;;;;;;5088883;28;20578;-80
2021/04/23 02:33:23;;;;;;;2.60;1.87;;;5.60;99.90;;;;;;5091310;28;20186;-82
2021/04/23 02:35:52;;;;;;;1.77;1.50;;;5.60;99.90;;;;;;5088779;28;20195;-83
2021/04/23 02:38:18;;;;;;;2.87;1.90;;;5.60;99.90;;;;;;5088674;28;20613;-81
2021/04/23 02:40:46;;;;;;;2.90;1.77;;;5.60;99.90;;;;;;5106216;28;20215;-82
2021/04/23 02:43:16;;;;;;;1.93;1.17;;;5.70;99.90;;;;;;5107110;28;20179;-81
2021/04/23 02:45:42;;;;;;;2.17;1.57;;;5.60;99.90;;;;;;5087059;28;20191;-81
2021/04/23 02:48:10;;;;;;;2.43;1.70;;;5.70;99.90;;;;;;5088072;28;20212;-82
2021/04/23 02:50:37;;;;;;;2.60;1.50;;;5.60;99.90;;;;;;5088335;28;20629;-81
2021/04/23 02:53:05;;;;;;;3.93;1.33;;;5.60;99.90;;;;;;5106567;28;20180;-82
2021/04/23 02:55:31;;;;;;;3.53;1.93;;;5.60;99.90;;;;;;5087879;28;20237;-82
2021/04/23 02:58:05;;;;;;;1.57;1.00;;;5.70;99.90;;;;;;5088181;28;20188;-81
2021/04/23 03:00:35;;;;;;;3.03;1.87;;;5.70;99.90;;;;;;5105174;28;20206;-82
2021/04/23 03:03:03;;;;;;;3.93;1.97;;;5.70;99.90;;;;;;5107266;28;20218;-81
2021/04/23 03:05:28;;;;;;;2.93;1.90;;;5.70;99.90;;;;;;5088094;28;20198;-80
2021/04/23 03:07:57;;;;;;;3.43;2.10;;;5.70;99.90;;;;;;5089530;28;20244;-81
2021/04/23 03:10:27;;;;;;;2.73;1.37;;;5.60;99.90;;;;;;5088397;28;20249;-81
2021/04/23 03:12:54;;;;;;;2.53;1.70;;;5.60;99.90;;;;;;5092033;28;20637;-81
2021/04/23 03:15:26;;;;;;;4.03;1.70;;;5.60;99.90;;;;;;5091388;28;21193;-80
2021/04/23 03:17:54;;;;;;;3.40;1.73;;;5.60;99.90;;;;;;5110367;27;20229;-80
2021/04/23 03:20:23;;;;;;;3.27;2.10;;;5.60;99.90;;;;;;5109843;27;20215;-82
2021/04/23 03:22:49;;;;;;;1.97;1.50;;;5.60;99.90;;;;;;5092096;28;20191;-81
2021/04/23 03:25:15;;;;;;;1.77;1.63;;;5.70;99.90;;;;;;5109673;28;20198;-81
2021/04/23 03:27:42;;;;;;;1.97;1.33;;;5.60;99.90;;;;;;5093862;28;20207;-81
2021/04/23 03:30:15;;;;;;;3.10;2.17;;;5.60;99.90;;;;;;5092270;27;20697;-80
2021/04/23 03:32:42;;;;;;;3.37;2.13;;;5.70;99.90;;;;;;5110444;27;20184;-80
2021/04/23 03:35:09;;;;;;;3.97;1.67;;;5.70;99.90;;;;;;5089939;28;20190;-81
2021/04/23 03:37:35;;;;;;;3.40;1.87;;;5.60;99.90;;;;;;5090530;28;20176;-80
2021/04/23 03:40:01;;;;;;;2.57;1.43;;;5.60;99.90;;;;;;5090583;27;20199;-81
2021/04/23 03:42:26;;;;;;;3.50;1.57;;;5.70;99.90;;;;;;5091079;28;20192;-81
2021/04/23 03:44:54;;;;;;;3.13;1.73;;;5.70;99.90;;;;;;5108722;27;20188;-81
2021/04/23 03:47:21;;;;;;;1.80;1.47;;;5.70;99.90;;;;;;5090565;28;20196;-81
2021/04/23 03:49:47;;;;;;;2.23;1.60;;;5.70;99.90;;;;;;5108126;28;20264;-83
2021/04/23 03:52:12;;;;;;;1.60;1.20;;;5.70;99.90;;;;;;5109541;27;20184;-80
2021/04/23 03:54:38;;;;;;;4.50;1.40;;;5.70;99.90;;;;;;5089558;28;20200;-83
2021/04/23 03:57:05;;;;;;;2.20;1.43;;;5.70;99.90;;;;;;5092023;27;20184;-81
2021/04/23 03:59:32;;;;;;;2.63;1.77;;;5.70;99.90;;;;;;5092267;28;20279;-82
2021/04/23 04:01:58;;;;;;;1.73;1.47;;;5.60;99.90;;;;;;5092311;27;20580;-81
2021/04/23 04:04:23;;;;;;;2.40;1.63;;;5.70;99.90;;;;;;5109612;27;20180;-80
2021/04/23 04:06:49;;;;;;;1.67;1.40;;;5.70;99.90;;;;;;5091148;27;20255;-81
2021/04/23 04:09:15;;;;;;;5.53;2.00;;;5.70;99.90;;;;;;5112062;27;20207;-79
2021/04/23 04:11:41;;;;;;;4.70;1.33;;;5.70;99.90;;;;;;5091538;28;20200;-82
2021/04/23 04:14:07;;;;;;;2.40;1.27;;;5.70;99.90;;;;;;5092048;28;20228;-83
2021/04/23 04:16:32;;;;;;;2.57;1.73;;;5.80;99.90;;;;;;5091088;28;20241;-82
2021/04/23 04:18:58;;;;;;;2.13;1.27;;;5.80;99.90;;;;;;5092056;27;20212;-80
2021/04/23 04:21:24;;;;;;;1.70;1.27;;;5.80;99.90;;;;;;5090691;28;20245;-81
2021/04/23 04:23:50;;;;;;;2.90;1.57;;;5.80;99.90;;;;;;5092428;28;20192;-82
2021/04/23 04:26:16;;;;;;;2.43;1.50;;;5.70;99.90;;;;;;5091419;28;20271;-81
2021/04/23 04:28:42;;;;;;;3.57;1.77;;;5.80;99.90;;;;;;5091867;28;20216;-81
2021/04/23 04:31:07;;;;;;;1.97;1.50;;;5.70;99.90;;;;;;5091456;28;20200;-81
2021/04/23 04:33:33;;;;;;;2.33;1.63;;;5.80;99.90;;;;;;5091042;28;20666;-80
2021/04/23 04:35:59;;;;;;;1.40;1.27;;;5.90;99.90;;;;;;5091296;27;20180;-80
2021/04/23 04:38:25;;;;;;;2.77;1.53;;;5.80;99.90;;;;;;5091065;28;20556;-81
2021/04/23 04:40:51;;;;;;;1.93;1.27;;;5.80;99.90;;;;;;5090621;27;20211;-81
2021/04/23 04:43:18;;;;;;;1.37;1.07;;;5.80;99.90;;;;;;5090834;28;20202;-82
2021/04/23 04:45:44;;;;;;;2.47;1.40;;;5.80;99.90;;;;;;5090150;28;20284;-81
2021/04/23 04:48:11;;;;;;;1.40;1.13;;;5.80;99.90;;;;;;5110100;27;20287;-83
2021/04/23 04:50:48;;;;;;;2.23;1.53;;;5.80;99.90;;;;;;5090102;28;20204;-80
2021/04/23 04:53:15;;;;;;;1.87;1.43;;;5.80;99.90;;;;;;5108102;28;20341;-82
2021/04/23 04:55:43;;;;;;;1.93;1.50;;;5.90;99.90;;;;;;5107749;28;20187;-83
2021/04/23 04:58:11;;;;;;;2.13;1.30;;;5.90;99.90;;;;;;5108414;27;20184;-82
2021/04/23 05:00:38;;;;;;;1.47;1.33;;;5.90;99.90;;;;;;5089747;28;20806;-79
2021/04/23 05:03:05;;;;;;;2.77;1.43;;;5.80;99.90;;;;;;5109269;28;20173;-79
2021/04/23 05:05:32;;;;;;;3.00;2.00;;;5.80;99.90;;;;;;5110637;28;20332;-83
2021/04/23 05:07:58;;;;;;;2.10;1.90;;;5.80;99.90;;;;;;5095974;27;20192;-79
2021/04/23 05:10:24;;;;;;;3.57;1.40;;;5.80;99.90;;;;;;5110344;27;20295;-81
2021/04/23 05:12:50;;;;;;;2.63;1.43;;;5.80;99.90;;;;;;5109342;27;20192;-80
2021/04/23 05:15:17;;;;;;;2.00;1.47;;;5.90;99.90;;;;;;5107161;28;20185;-79
2021/04/23 05:17:43;;;;;;;2.27;1.50;;;5.90;99.90;;;;;;5108353;27;20259;-79
2021/04/23 05:20:11;;;;;;;1.83;1.23;;;6.00;99.90;;;;;;5106838;28;20245;-81
2021/04/23 05:22:37;;;;;;;1.93;1.60;;;5.90;99.90;;;;;;5107640;28;20180;-82
2021/04/23 05:25:04;;;;;;;2.20;1.37;;;6.00;99.90;;;;;;5107081;27;20190;-81
2021/04/23 05:27:30;;;;;;;4.00;2.03;;;6.00;99.90;;;;;;5107207;27;20631;-80
2021/04/23 05:29:56;;;;;;;3.03;1.63;;;6.10;99.90;;;;;;5088053;28;20238;-81
2021/04/23 05:32:22;;;;;;;1.07;0.80;;;6.10;99.90;;;;;;5087877;28;20653;-80
2021/04/23 05:34:48;;;;;;;6.23;2.37;;;6.10;99.90;;;;;;5106475;28;20220;-80
2021/04/23 05:37:14;;;;;;;3.10;1.80;;;6.10;99.90;;;;;;5107731;28;20180;-83
2021/04/23 05:39:44;;;;;;;2.90;1.63;;;6.20;99.90;;;;;;5106292;27;20323;-80
2021/04/23 05:42:14;;;;;;;1.60;1.50;;;6.20;99.90;;;;;;5088348;28;20195;-81
2021/04/23 05:44:40;;;;;;;2.80;1.50;;;6.20;99.90;;;;;;5087313;28;20185;-80
2021/04/23 05:47:06;;;;;;;2.73;2.20;;;6.20;99.90;;;;;;5107303;27;20184;-81
2021/04/23 05:49:33;;;;;;;3.17;1.67;;;6.30;99.90;;;;;;5105939;28;20275;-79
2021/04/23 05:51:59;;;;;;;3.73;2.43;;;6.40;99.90;;;;;;5107986;27;20208;-82
2021/04/23 05:54:25;;;;;;;3.37;1.83;;;6.40;99.90;;;;;;5087758;28;20180;-78
2021/04/23 05:56:51;;;;;;;3.70;1.40;;;6.40;99.90;;;;;;5087872;28;20184;-82
2021/04/23 05:59:17;;;;;;;2.10;1.47;;;6.50;99.90;;;;;;5106342;28;20176;-82
2021/04/23 06:01:43;;;;;;;2.50;1.50;;;6.60;99.90;;;;;;5089406;28;20200;-80
2021/04/23 06:04:08;;;;;;;2.00;1.33;;;6.70;99.90;;;;;;5107099;27;20194;-81
2021/04/23 06:06:34;;;;;;;3.00;1.43;;;6.70;99.90;;;;;;5084681;28;20188;-81
2021/04/23 06:08:59;;;;;;;2.53;1.60;;;6.80;99.90;;;;;;5088901;28;20270;-83
2021/04/23 06:11:25;;;;;;;2.93;2.20;;;6.90;99.90;;;;;;5088128;28;20398;-82
2021/04/23 06:13:51;;;;;;;2.03;1.30;;;6.80;99.90;;;;;;5087902;28;21073;-83
2021/04/23 06:16:17;;;;;;;3.37;1.57;;;6.80;99.90;;;;;;5087597;28;20271;-82
2021/04/23 06:18:43;;;;;;;3.83;1.43;;;6.80;99.90;;;;;;5106377;27;20194;-83
2021/04/23 06:21:09;;;;;;;4.20;1.67;;;6.90;99.90;;;;;;5087621;28;20684;-80
2021/04/23 06:23:37;;;;;;;2.17;1.30;;;7.00;99.90;;;;;;5106881;28;20296;-83
2021/04/23 06:26:03;;;;;;;3.07;1.60;;;7.10;99.90;;;;;;5091048;27;20183;-79
2021/04/23 06:28:29;;;;;;;2.60;1.73;;;7.30;99.90;;;;;;5088808;28;20207;-81
2021/04/23 06:30:56;;;;;;;2.00;1.70;;;7.30;99.90;;;;;;5106376;28;20885;-83
2021/04/23 06:33:24;;;;;;;1.70;1.30;;;7.30;99.90;;;;;;5107193;27;20199;-79
2021/04/23 06:35:49;;;;;;;2.33;1.50;;;7.30;99.90;;;;;;5088307;28;20188;-81
2021/04/23 06:38:15;;;;;;;3.30;2.37;;;7.40;99.90;;;;;;5088605;28;20188;-79
2021/04/23 06:40:42;;;;;;;2.03;1.37;;;7.40;99.90;;;;;;5087835;28;20200;-82
2021/04/23 06:43:09;;;;;;;2.97;1.63;;;7.40;99.90;;;;;;5106424;28;20176;-81
2021/04/23 06:45:35;;;;;;;2.73;1.70;;;7.60;99.90;;;;;;5086976;28;20225;-81
2021/04/23 06:48:02;;;;;;;2.10;1.60;;;7.80;99.90;;;;;;5088099;28;20199;-81
2021/04/23 06:50:28;;;;;;;1.37;1.03;;;7.90;99.90;;;;;;5088983;28;20203;-76
2021/04/23 06:52:54;;;;;;;4.07;2.03;;;8.00;99.90;;;;;;5111489;28;20316;-78
2021/04/23 06:55:21;;;;;;;3.47;1.97;;;8.00;99.90;;;;;;5107735;28;20187;-77
2021/04/23 06:57:47;;;;;;;2.80;1.70;;;7.80;99.90;;;;;;5105557;28;20528;-80
2021/04/23 07:00:26;;;;;;;3.83;2.33;;;7.60;99.90;;;;;;5107236;28;20215;-79
2021/04/23 07:02:52;;;;;;;2.17;1.67;;;7.60;99.90;;;;;;5107432;28;20247;-78
2021/04/23 07:05:19;;;;;;;4.83;2.37;;;7.60;99.90;;;;;;5105833;28;20814;-78
2021/04/23 07:07:45;;;;;;;2.63;1.80;;;7.70;99.90;;;;;;5106234;28;20176;-78
2021/04/23 07:10:14;;;;;;;3.40;1.83;;;7.80;99.90;;;;;;5106277;28;21232;-79
2021/04/23 07:12:39;;;;;;;4.03;1.67;;;7.90;99.90;;;;;;5105863;28;20207;-79
2021/04/23 07:15:09;;;;;;;2.30;1.40;;;8.10;99.90;;;;;;5105950;28;20657;-79
2021/04/23 07:17:34;;;;;;;4.00;1.83;;;8.20;99.90;;;;;;5106353;28;20173;-77
2021/04/23 07:20:00;;;;;;;5.10;1.80;;;8.40;99.90;;;;;;5106149;28;20186;-78
2021/04/23 07:22:26;;;;;;;3.33;1.77;;;8.20;99.90;;;;;;5089011;28;20259;-78
2021/04/23 07:24:51;;;;;;;2.20;1.40;;;8.20;99.90;;;;;;5107189;28;20195;-77
2021/04/23 07:27:17;;;;;;;3.70;2.00;;;8.20;99.90;;;;;;5090052;28;20230;-77
2021/04/23 07:29:43;;;;;;;2.07;1.63;;;8.10;99.90;;;;;;5089521;28;20242;-79
2021/04/23 07:32:08;;;;;;;4.37;2.53;;;8.30;99.90;;;;;;5097056;28;20192;-80
2021/04/23 07:34:35;;;;;;;3.33;1.90;;;8.50;99.90;;;;;;5107326;28;20250;-76
2021/04/23 07:37:02;;;;;;;2.23;1.50;;;8.50;99.90;;;;;;5090843;28;20191;-77
2021/04/23 07:39:27;;;;;;;1.67;1.37;;;8.50;99.90;;;;;;5088723;28;20184;-77
2021/04/23 07:41:57;;;;;;;3.43;1.77;;;8.40;99.90;;;;;;5104064;28;20226;-81
2021/04/23 07:44:23;;;;;;;2.27;1.40;;;8.50;99.90;;;;;;5105392;28;20177;-80
2021/04/23 07:46:50;;;;;;;2.43;1.70;;;8.50;99.90;;;;;;5086379;28;20188;-82
2021/04/23 07:49:16;;;;;;;2.60;1.80;;;8.60;99.90;;;;;;5087576;28;20234;-77
2021/04/23 07:51:42;;;;;;;1.77;1.43;;;8.70;99.90;;;;;;5107163;28;20232;-82
2021/04/23 07:54:09;;;;;;;2.93;1.30;;;8.80;99.90;;;;;;5105358;28;20665;-81
2021/04/23 07:56:36;;;;;;;2.50;2.10;;;9.00;99.90;;;;;;5085021;28;20172;-83
2021/04/23 07:59:02;;;;;;;2.33;1.67;;;9.10;99.90;;;;;;5091363;28;20184;-82
2021/04/23 08:01:28;;;;;;;7.07;2.80;;;9.20;99.90;;;;;;5107683;27;20374;-81
2021/04/23 08:03:54;;;;;;;5.97;2.97;;;9.30;99.90;;;;;;5089519;28;20227;-81
2021/04/23 08:06:19;;;;;;;4.50;2.47;;;9.40;99.90;;;;;;5107729;28;20318;-81
2021/04/23 08:08:45;;;;;;;4.53;2.33;;;9.60;99.90;;;;;;5090032;28;20227;-81
2021/04/23 08:11:10;;;;;;;2.37;1.67;;;9.60;99.90;;;;;;5108202;28;20685;-81
2021/04/23 08:13:36;;;;;;;2.03;1.80;;;9.60;99.90;;;;;;5110027;27;20184;-81
2021/04/23 08:16:02;;;;;;;3.00;1.63;;;9.50;99.90;;;;;;5089390;28;20239;-82
2021/04/23 08:18:27;;;;;;;3.10;2.33;;;9.30;99.90;;;;;;5090914;28;20184;-82
2021/04/23 08:20:53;;;;;;;2.23;1.90;;;9.50;99.90;;;;;;5089775;28;20208;-81
2021/04/23 08:23:18;;;;;;;3.17;1.47;;;9.50;99.90;;;;;;5090885;28;20185;-80
2021/04/23 08:25:44;;;;;;;3.67;1.40;;;9.50;99.90;;;;;;5089759;28;20739;-81
2021/04/23 08:28:10;;;;;;;3.43;2.00;;;9.50;99.90;;;;;;5108468;27;20183;-81
2021/04/23 08:30:35;;;;;;;3.20;2.10;;;9.50;99.90;;;;;;5088972;28;20188;-81
2021/04/23 08:33:02;;;;;;;3.40;2.00;;;9.60;99.90;;;;;;5090204;27;20184;-83
2021/04/23 08:35:27;;;;;;;6.73;2.77;;;9.90;99.90;;;;;;5104715;28;20176;-81
2021/04/23 08:37:53;;;;;;;2.73;1.60;;;10.00;99.90;;;;;;5086696;27;20442;-81
2021/04/23 08:40:21;;;;;;;4.07;1.40;;;10.30;99.90;;;;;;5104533;28;20207;-81
2021/04/23 08:42:47;;;;;;;1.47;1.20;;;10.30;99.90;;;;;;5086921;28;20661;-82
2021/04/23 08:45:16;;;;;;;2.40;2.00;;;10.50;99.90;;;;;;5104823;27;20275;-81
2021/04/23 08:47:44;;;;;;;2.93;1.73;;;10.80;99.90;;;;;;5103979;27;20443;-81
2021/04/23 08:50:11;;;;;;;3.53;1.83;;;10.80;99.90;;;;;;5088144;27;20212;-82
2021/04/23 08:52:39;;;;;;;3.17;1.30;;;11.00;99.90;;;;;;5089788;28;20172;-83
2021/04/23 08:55:05;;;;;;;2.00;1.50;;;11.20;99.90;;;;;;5108663;27;20188;-80
2021/04/23 08:57:31;;;;;;;3.87;1.20;;;10.80;99.90;;;;;;5089867;28;20180;-78
2021/04/23 08:59:56;;;;;;;1.20;1.10;;;10.90;99.90;;;;;;5089545;28;20184;-80
2021/04/23 09:02:22;;;;;;;4.23;1.90;;;11.00;99.90;;;;;;5107509;27;20571;-80
2021/04/23 09:04:48;;;;;;;2.60;1.90;;;10.90;99.90;;;;;;5107437;27;20267;-81
2021/04/23 09:07:14;;;;;;;1.67;1.30;;;10.50;99.90;;;;;;5091092;28;20295;-82
2021/04/23 09:09:42;;;;;;;2.00;1.63;;;10.50;99.90;;;;;;5111266;27;20352;-80
2021/04/23 09:12:20;;;;;;;1.50;1.30;;;10.60;99.90;;;;;;5087154;27;20203;-80
2021/04/23 09:14:48;;;;;;;3.10;1.43;;;10.60;99.90;;;;;;5105595;28;20164;-80
2021/04/23 09:17:19;;;;;;;3.00;1.40;;;10.70;99.90;;;;;;5106955;27;20187;-79
2021/04/23 09:19:45;;;;;;;2.20;1.47;;;11.00;99.90;;;;;;5088256;28;20180;-80
2021/04/23 09:22:32;;;;;;;4.30;1.60;;;11.50;99.90;;;;;;5088942;27;20279;-81
2021/04/23 09:25:06;;;;;;;2.63;1.47;;;11.80;99.90;;;;;;5106446;27;20180;-81
2021/04/23 09:27:37;;;;;;;3.20;1.93;;;11.90;99.90;;;;;;5105395;27;20180;-80
2021/04/23 09:30:11;;;;;;;4.07;1.90;;;11.40;99.90;;;;;;5106475;27;20207;-79
2021/04/23 09:32:42;;;;;;;2.33;1.60;;;10.90;99.90;;;;;;5105271;27;20178;-81
2021/04/23 09:35:16;;;;;;;2.93;1.80;;;11.00;99.90;;;;;;5105106;27;20187;-80
2021/04/23 09:37:53;;;;;;;2.60;1.97;;;11.50;99.90;;;;;;5103115;27;20172;-79
2021/04/23 09:40:33;;;;;;;10.67;1.37;;;11.30;99.90;;;;;;5103978;28;20227;-84
2021/04/23 09:43:01;;;;;;;1.77;1.40;;;11.60;99.90;;;;;;5105567;27;20184;-79
2021/04/23 09:45:32;;;;;;;3.77;2.07;;;11.80;99.90;;;;;;5104941;28;20207;-82
2021/04/23 09:47:58;;;;;;;1.30;1.17;;;11.80;99.90;;;;;;5103903;27;20695;-80
2021/04/23 09:50:30;;;;;;;1.83;1.07;;;11.60;99.90;;;;;;5104405;28;20207;-81
2021/04/23 09:52:58;;;;;;;2.43;1.50;;;11.10;99.90;;;;;;5105718;27;20172;-80
2021/04/23 09:55:27;;;;;;;4.73;1.90;;;11.10;99.90;;;;;;5085503;28;20590;-80
2021/04/23 09:57:58;;;;;;;2.50;1.73;;;11.40;99.90;;;;;;5101559;28;20621;-80
2021/04/23 10:00:28;;;;;;;4.47;1.97;;;11.50;99.90;;;;;;5099110;27;20256;-80
2021/04/23 10:02:57;;;;;;;3.03;1.60;;;11.60;99.90;;;;;;5104065;27;20257;-81
2021/04/23 10:05:44;;;;;;;1.70;1.10;;;11.70;99.90;;;;;;5085555;28;20187;-82
2021/04/23 10:08:29;;;;;;;1.57;1.07;;;11.80;99.90;;;;;;5103837;27;20660;-81
2021/04/23 10:10:57;;;;;;;3.27;1.70;;;11.80;99.90;;;;;;5102097;27;20223;-82
2021/04/23 10:13:30;;;;;;;2.73;1.23;;;11.50;99.90;;;;;;5104232;27;20183;-80
2021/04/23 10:15:56;;;;;;;1.30;1.20;;;11.80;99.90;;;;;;5085814;28;20605;-80
2021/04/23 10:18:22;;;;;;;2.03;1.63;;;11.70;99.90;;;;;;5105418;28;20176;-80
2021/04/23 10:20:50;;;;;;;1.73;1.33;;;11.80;99.90;;;;;;5105161;28;20208;-79
2021/04/23 10:23:17;;;;;;;1.67;1.57;;;11.80;99.90;;;;;;5087383;28;20172;-79
2021/04/23 10:25:44;;;;;;;1.40;1.30;;;11.50;99.90;;;;;;5086818;28;20196;-80
2021/04/23 10:28:11;;;;;;;3.00;1.40;;;11.60;99.90;;;;;;5088046;28;20195;-79
2021/04/23 10:30:40;;;;;;;5.53;2.13;;;12.00;99.90;;;;;;5086700;28;20676;-81
2021/04/23 10:33:18;;;;;;;3.00;1.80;;;12.20;99.90;;;;;;5087625;27;20180;-80
2021/04/23 10:35:50;;;;;;;3.53;1.20;;;12.60;99.90;;;;;;5078256;28;20180;-81
2021/04/23 10:38:22;;;;;;;2.80;1.60;;;12.80;99.90;;;;;;5100842;28;20211;-80
2021/04/23 10:40:54;;;;;;;3.53;1.40;;;12.80;99.90;;;;;;5083258;28;20441;-80
2021/04/23 10:43:20;;;;;;;2.78;1.08;;;12.80;99.90;;;;;;5096950;28;20458;-80
2021/04/23 10:45:50;;;;;;;4.87;2.17;;;12.60;99.90;;;;;;5100980;28;20643;-79
2021/04/23 10:48:15;;;;;;;1.52;1.27;;;12.60;99.90;;;;;;5082969;28;20201;-80
2021/04/23 10:50:47;;;;;;;2.73;1.57;;;12.50;99.90;;;;;;5082219;28;20202;-80
2021/04/23 10:53:16;;;;;;;3.20;1.67;;;12.50;99.90;;;;;;5102746;28;20180;-80
2021/04/23 10:55:54;;;;;;;1.93;1.60;;;12.60;99.90;;;;;;5083083;28;20183;-80
2021/04/23 10:58:28;;;;;;;2.10;1.10;;;12.60;99.90;;;;;;5083965;28;20176;-81
2021/04/23 11:00:56;;;;;;;2.60;1.40;;;12.50;99.90;;;;;;5101811;28;20196;-80
2021/04/23 11:03:34;;;;;;;2.27;1.10;;;12.30;99.90;;;;;;5102515;28;20629;-80
2021/04/23 11:06:13;;;;;;;2.90;1.63;;;12.30;99.90;;;;;;5085631;28;20180;-79
2021/04/23 11:08:58;;;;;;;2.33;1.50;;;12.30;99.90;;;;;;5088932;28;20208;-79
2021/04/23 11:11:24;;;;;;;1.80;1.10;;;12.30;99.90;;;;;;5107588;28;20192;-80
2021/04/23 11:13:53;;;;;;;1.97;1.60;;;11.90;99.90;;;;;;5109426;28;20183;-81
2021/04/23 11:16:25;;;;;;;1.63;1.30;;;11.70;99.90;;;;;;5090813;28;20430;-79
2021/04/23 11:18:56;;;;;;;2.50;1.67;;;11.90;99.90;;;;;;5087971;28;20674;-80
2021/04/23 11:21:31;;;;;;;1.90;1.53;;;12.20;99.90;;;;;;5107193;28;20621;-81
2021/04/23 11:24:12;;;;;;;2.80;1.77;;;12.50;99.90;;;;;;5093289;28;20457;-80
2021/04/23 11:26:53;;;;;;;2.43;1.50;;;12.60;99.90;;;;;;5108075;28;20200;-80
2021/04/23 11:29:48;;;;;;;3.47;2.17;;;12.70;99.90;;;;;;5090562;28;20570;-82
2021/04/23 11:32:23;;;;;;;1.60;1.50;;;12.80;99.90;;;;;;5101281;27;20229;-81
2021/04/23 11:34:51;;;;;;;1.50;1.27;;;12.70;99.90;;;;;;5115565;27;20211;-80
2021/04/23 11:37:24;;;;;;;2.92;1.30;;;12.80;99.90;;;;;;5096008;28;20180;-81
2021/04/23 11:39:54;;;;;;;1.70;1.30;;;12.90;99.90;;;;;;5095438;28;20184;-81
2021/04/23 11:42:25;;;;;;;1.35;1.25;;;13.10;99.90;;;;;;5096058;28;20619;-82
2021/04/23 11:44:51;;;;;;;3.00;1.30;;;13.00;99.30;;;;;;5112415;27;20188;-76
2021/04/23 11:47:26;;;;;;;5.13;2.42;;;12.90;99.90;;;;;;5114581;27;20210;-78
2021/04/23 11:50:01;;;;;;;4.07;3.38;;;13.10;99.90;;;;;;5093398;27;20234;-81
2021/04/23 11:52:32;;;;;;;2.33;2.10;;;13.40;99.90;;;;;;5094727;28;20179;-77
2021/04/23 11:54:57;;;;;;;1.50;1.40;;;13.50;99.90;;;;;;5118559;27;20176;-78
2021/04/23 11:57:29;;;;;;;7.20;2.45;;;12.80;99.90;;;;;;5119383;28;20180;-78
2021/04/23 12:00:08;;;;;;;2.97;1.93;;;12.80;99.90;;;;;;5112293;28;20180;-77
2021/04/23 12:02:37;;;;;;;1.95;1.65;;;12.80;99.90;;;;;;5113240;27;20183;-78
2021/04/23 12:05:03;;;;;;;2.67;1.65;;;13.00;99.90;;;;;;5117657;27;20196;-78
2021/04/23 12:07:43;;;;;;;2.58;1.50;;;13.20;99.90;;;;;;5099940;28;20191;-78
2021/04/23 12:10:10;;;;;;;3.20;2.00;;;13.20;99.90;;;;;;5118166;28;20239;-78
2021/04/23 12:12:36;;;;;;;4.30;1.33;;;13.20;99.90;;;;;;5102309;28;20177;-78
2021/04/23 12:15:04;;;;;;;2.72;1.45;;;13.40;99.90;;;;;;5118462;28;20240;-79
2021/04/23 12:17:43;;;;;;;2.95;1.58;;;13.60;99.90;;;;;;5117790;27;20188;-78
2021/04/23 12:20:19;;;;;;;3.55;1.42;;;13.70;99.30;;;;;;5111818;28;20283;-78
2021/04/23 12:22:45;;;;;;;1.75;1.40;;;13.70;97.90;;;;;;5109671;27;20191;-81
2021/04/23 12:25:25;;;;;;;2.10;1.58;;;13.60;97.80;;;;;;5110137;27;20256;-78
2021/04/23 12:27:50;;;;;;;4.10;1.95;;;13.60;97.40;;;;;;5093808;27;20192;-77
2021/04/23 12:30:31;;;;;;;4.85;2.58;;;13.40;98.90;;;;;;5115854;27;20216;-80
2021/04/23 12:32:57;;;;;;;2.53;1.40;;;13.60;99.10;;;;;;5097577;28;20175;-80
2021/04/23 12:35:54;;;;;;;1.88;1.30;;;13.60;99.40;;;;;;5114187;28;20637;-77
2021/04/23 12:38:40;;;;;;;2.30;1.45;;;13.50;99.60;;;;;;5055674;27;20196;-78
2021/04/23 12:41:19;;;;;;;2.15;1.42;;;13.40;98.80;;;;;;5109870;27;20290;-80
2021/04/23 12:43:47;;;;;;;1.70;1.23;;;13.40;98.50;;;;;;5112302;28;20168;-78
2021/04/23 12:46:22;;;;;;;2.03;1.65;;;13.20;99.50;;;;;;5111819;27;20168;-78
2021/04/23 12:49:38;;;;;;;2.28;1.75;;;13.40;99.40;;;;;;5094098;28;20215;-79
2021/04/23 12:52:11;;;;;;;3.67;1.70;;;13.30;99.20;;;;;;5111487;27;20255;-78
2021/04/23 12:54:38;;;;;;;2.08;1.55;;;13.40;98.10;;;;;;5112492;27;20188;-78
2021/04/23 12:57:10;;;;;;;3.05;1.73;;;13.70;98.00;;;;;;5112595;27;20555;-78
2021/04/23 12:59:40;;;;;;;1.92;1.50;;;13.60;98.00;;;;;;5112453;27;20831;-78